메인 페이지
METAR-TAF:

METAR-TAF

공항 :

진나 국제공항

카라치, 파키스탄

위도: 24-54N, 경도: 067-08E, 고도: 21m

현재 날씨관측

예보는 21분 전, 09:25시(UTC)에 발표되었습니다.
4kt
온도 39°C
습도 9%
기압 1010 hPa
시정: 7000m

METAR: OPKC 150925Z 28004KT 7000 NSC 39/01 Q1010 NOSIG

시각: 14:46 (09:46 UTC)

예보

예보는 3 시간 16분 전, 06:30시(UTC)에 발표되었습니다.
예보 대상 시간: 15일 09시부터 15일 18시까지 (UTC)
남서5kt, 순간 최대 풍속 15kt
시정: 6000m
고도 3000ft 상공 구름 보통

TAF: OPKC 150630Z 1509/1518 23005G15KT 6000 SCT030

4,000개 이상의 공항 관측 자료 및 예보 (METAR 및 TAF 보고).

지도상에서 검색 가능한 기상관측소가 노란 점과 빨간 점으로 표시되어 있습니다.

기상관측소 명을 보려면 표시 위로 마우스를 이동하세요.

날씨 관측과 예보를 보려면 클릭하세요.

지도 변경 : 확대하려면 엑스 표시가 있는 녹색 버튼, 축소하려면 빼기 표시가 있는 녹색 버튼, 다음 페이지의 지도를 보려면 녹색 화살표를 클릭하세요.


METAR-TAF: